首页
METAR-TAF:

METAR-TAF

机场 :

Arlington Municipal Airport

阿灵顿, 得克萨斯州, 美国

纬度: 32-39-50N, 经度: 097-05-45W, 海拔: 192米

当前天气观测

该预报发布于57分钟前的18:53 UTC
风速14节,风向南转南东,有时为24节阵风
温度 33°C
湿度 53%
气压 1010 hPa
能見度: 16.1公里
少量云层高于4400英尺
少量云层高于6000英尺
散云层高于7000英尺

METAR: KGKY 171853Z 16014G24KT 10SM FEW044 FEW060 SCT070 33/22 A2982 RMK AO2 PK WND 16026/1812 SLP085 T03330217 $

时间: 14:50 (19:50 UTC)

预报

该预报发布于2小时和30分钟前的17:20 UTC
预报有效从17日的 18点(UTC)到 18日的 18点(UTC)
风速15节,风向南转南东,有时为25节阵风
能見度: 10公里
散云层高于4000英尺
从 18日的 0600点(UTC)
风速14节,风向南转南东
能見度: 10公里
多云层高于1500英尺
从 18日的 1700点(UTC)
风速16节,风向南转南东
能見度: 10公里
散云层高于2500英尺
多云层高于3500英尺

TAF: KGKY 171720Z 1718/1818 16015G25KT P6SM SCT040 FM180600 16014KT P6SM BKN015 FM181700 15016KT P6SM SCT025 BKN035

超过4000个机场的气象观测和天气预报(METAR&TAF报告)。

可查询的气象台以黄色和红色小点在地图上表示。

将鼠标移到小点上方,可查看气象台名称。

然后点击查看天气观测和预报。

如需切换地图:点击带黑十字的绿色按钮放大地图;点击带横线的绿色按钮缩小地图;或者点击绿色箭头查看邻近地区的地图。


METAR-TAF: